Time;durP1;ratioP1;P1;durP2;ratioP2;P2;SDS_P1;SDS_P2;PMS_P1;PMS_P2;Temp;Humidity;BMP_temperature;BMP_pressure;BME280_temperature;BME280_humidity;BME280_pressure;Samples;Min_cycle;Max_cycle;Signal;HPM_P1;HPM_P2
2022/03/06 00:00:12;;;;;;;;;;;5.60;50.60;;;;;;5017145;28;19910;-55
2022/03/06 00:02:37;;;;;;;;;;;5.70;50.70;;;;;;4999799;28;19916;-55
2022/03/06 00:05:03;;;;;;;;;;;5.60;50.90;;;;;;5017025;28;19917;-53
2022/03/06 00:07:29;;;;;;;;;;;5.70;50.90;;;;;;5017374;28;19955;-55
2022/03/06 00:09:54;;;;;;;;;;;5.70;50.90;;;;;;5017039;28;20272;-54
2022/03/06 00:12:20;;;;;;;;;;;5.70;50.80;;;;;;5017039;28;19919;-54
2022/03/06 00:14:46;;;;;;;;;;;5.80;50.90;;;;;;5016798;28;19913;-53
2022/03/06 00:17:11;;;;;;;;;;;5.80;50.80;;;;;;5016732;28;20032;-54
2022/03/06 00:19:37;;;;;;;;;;;5.70;50.90;;;;;;5016702;28;20349;-53
2022/03/06 00:22:03;;;;;;;;;;;5.70;50.90;;;;;;5016999;28;19910;-53
2022/03/06 00:24:29;;;;;;;;;;;5.70;50.90;;;;;;5016818;28;19916;-55
2022/03/06 00:26:54;;;;;;;;;;;5.80;50.90;;;;;;5016618;28;20309;-55
2022/03/06 00:29:20;;;;;;;;;;;5.70;50.60;;;;;;5016757;28;19988;-55
2022/03/06 00:31:45;;;;;;;;;;;5.80;50.60;;;;;;5016475;28;20358;-55
2022/03/06 00:34:11;;;;;;;;;;;5.80;50.40;;;;;;5016462;28;20268;-61
2022/03/06 00:36:37;;;;;;;;;;;5.70;50.80;;;;;;4999030;28;19919;-52
2022/03/06 00:39:03;;;;;;;;;;;5.80;50.70;;;;;;5016944;28;20262;-54
2022/03/06 00:41:29;;;;;;;;;;;5.70;50.60;;;;;;5016625;28;19909;-57
2022/03/06 00:43:54;;;;;;;;;;;5.80;50.50;;;;;;5016398;28;20327;-59
2022/03/06 00:46:20;;;;;;;;;;;5.70;50.50;;;;;;5016235;28;19916;-55
2022/03/06 00:48:46;;;;;;;;;;;5.60;50.90;;;;;;5016461;28;19963;-55
2022/03/06 00:51:12;;;;;;;;;;;5.60;50.90;;;;;;5016565;28;19909;-54
2022/03/06 00:53:38;;;;;;;;;;;5.50;51.20;;;;;;4999189;28;19910;-53
2022/03/06 00:56:03;;;;;;;;;;;5.50;51.30;;;;;;5016531;28;19917;-54
2022/03/06 00:58:29;;;;;;;;;;;5.40;51.20;;;;;;5015179;28;19918;-61
2022/03/06 01:00:55;;;;;;;;;;;5.50;51.40;;;;;;5015872;28;19941;-55
2022/03/06 01:03:20;;;;;;;;;;;5.60;50.90;;;;;;5016169;28;20354;-55
2022/03/06 01:05:47;;;;;;;;;;;5.60;51.00;;;;;;5015795;28;19919;-58
2022/03/06 01:08:12;;;;;;;;;;;5.60;51.10;;;;;;5016029;28;19964;-55
2022/03/06 01:10:39;;;;;;;;;;;5.50;51.20;;;;;;5015995;28;19953;-55
2022/03/06 01:13:06;;;;;;;;;;;5.50;51.40;;;;;;5015743;28;19956;-56
2022/03/06 01:15:31;;;;;;;;;;;5.50;51.70;;;;;;5015563;28;19909;-60
2022/03/06 01:17:57;;;;;;;;;;;5.50;51.80;;;;;;5015306;28;19922;-56
2022/03/06 01:20:24;;;;;;;;;;;5.60;51.40;;;;;;4998063;28;19910;-56
2022/03/06 01:22:50;;;;;;;;;;;5.60;51.40;;;;;;5015927;28;19910;-53
2022/03/06 01:25:15;;;;;;;;;;;5.60;51.50;;;;;;5015619;28;19913;-53
2022/03/06 01:27:41;;;;;;;;;;;5.60;51.60;;;;;;5015426;28;20293;-54
2022/03/06 01:30:08;;;;;;;;;;;5.50;52.20;;;;;;5015201;28;19914;-54
2022/03/06 01:32:33;;;;;;;;;;;5.40;52.10;;;;;;5015326;28;20055;-53
2022/03/06 01:34:59;;;;;;;;;;;5.30;52.40;;;;;;5015532;28;19960;-54
2022/03/06 01:37:25;;;;;;;;;;;5.50;52.20;;;;;;5015171;28;20353;-54
2022/03/06 01:39:51;;;;;;;;;;;5.50;52.20;;;;;;5015546;28;19916;-53
2022/03/06 01:42:17;;;;;;;;;;;5.50;52.20;;;;;;5015325;28;19951;-56
2022/03/06 01:44:46;;;;;;;;;;;5.60;52.00;;;;;;5014775;28;19910;-53
2022/03/06 01:47:11;;;;;;;;;;;5.40;52.20;;;;;;5014427;28;20250;-53
2022/03/06 01:49:37;;;;;;;;;;;5.30;53.30;;;;;;5015191;28;19920;-55
2022/03/06 01:52:03;;;;;;;;;;;5.30;52.90;;;;;;5015437;28;19910;-57
2022/03/06 01:54:28;;;;;;;;;;;5.50;52.60;;;;;;5014783;28;20370;-55
2022/03/06 01:56:54;;;;;;;;;;;5.40;52.30;;;;;;5015027;28;19971;-55
2022/03/06 01:59:22;;;;;;;;;;;5.40;52.70;;;;;;5014922;28;19910;-58
2022/03/06 02:01:48;;;;;;;;;;;5.40;52.50;;;;;;5015242;28;19909;-55
2022/03/06 02:04:14;;;;;;;;;;;5.40;52.30;;;;;;5014676;28;20332;-55
2022/03/06 02:06:39;;;;;;;;;;;5.50;52.50;;;;;;5014615;28;19909;-56
2022/03/06 02:09:05;;;;;;;;;;;5.30;52.80;;;;;;5014715;28;19916;-55
2022/03/06 02:11:31;;;;;;;;;;;5.30;52.90;;;;;;5014475;28;19960;-55
2022/03/06 02:13:56;;;;;;;;;;;5.40;52.90;;;;;;5014607;28;20293;-55
2022/03/06 02:16:22;;;;;;;;;;;5.50;52.60;;;;;;5014548;28;19914;-55
2022/03/06 02:18:48;;;;;;;;;;;5.20;52.80;;;;;;5014473;28;19926;-58
2022/03/06 02:21:14;;;;;;;;;;;5.30;52.90;;;;;;5014589;28;19945;-52
2022/03/06 02:23:40;;;;;;;;;;;5.40;52.80;;;;;;5014691;28;19913;-53
2022/03/06 02:26:06;;;;;;;;;;;5.50;52.40;;;;;;5014528;28;19910;-53
2022/03/06 02:28:32;;;;;;;;;;;5.50;52.30;;;;;;5014607;28;19910;-54
2022/03/06 02:30:57;;;;;;;;;;;5.60;52.30;;;;;;5014282;28;19956;-53
2022/03/06 02:33:23;;;;;;;;;;;5.50;52.30;;;;;;5014713;28;19909;-57
2022/03/06 02:35:49;;;;;;;;;;;5.30;52.80;;;;;;5014150;28;20337;-57
2022/03/06 02:38:15;;;;;;;;;;;5.20;53.30;;;;;;5014475;28;19917;-56
2022/03/06 02:40:41;;;;;;;;;;;5.20;53.30;;;;;;5014365;28;19909;-53
2022/03/06 02:43:07;;;;;;;;;;;5.30;53.30;;;;;;5013990;28;19983;-54
2022/03/06 02:45:33;;;;;;;;;;;5.30;53.10;;;;;;5014545;28;19921;-53
2022/03/06 02:47:59;;;;;;;;;;;5.30;53.10;;;;;;5014334;28;19910;-53
2022/03/06 02:50:26;;;;;;;;;;;5.30;53.30;;;;;;5014040;28;19916;-53
2022/03/06 02:52:53;;;;;;;;;;;5.20;53.30;;;;;;5014184;28;19916;-55
2022/03/06 02:55:19;;;;;;;;;;;5.30;53.40;;;;;;5013936;28;19909;-55
2022/03/06 02:57:45;;;;;;;;;;;5.30;53.40;;;;;;5013882;28;19925;-55
2022/03/06 03:00:11;;;;;;;;;;;5.40;53.10;;;;;;5014097;28;20287;-55
2022/03/06 03:02:38;;;;;;;;;;;5.40;52.70;;;;;;5013705;28;19953;-55
2022/03/06 03:05:07;;;;;;;;;;;5.40;52.60;;;;;;5014018;28;20287;-54
2022/03/06 03:07:33;;;;;;;;;;;5.40;52.50;;;;;;5013664;28;19941;-55
2022/03/06 03:09:59;;;;;;;;;;;5.30;52.70;;;;;;5014060;28;20377;-55
2022/03/06 03:12:25;;;;;;;;;;;5.20;53.00;;;;;;5013770;28;19956;-55
2022/03/06 03:14:50;;;;;;;;;;;5.30;53.20;;;;;;5013733;28;19910;-53
2022/03/06 03:17:16;;;;;;;;;;;5.30;53.10;;;;;;5013981;28;19927;-55
2022/03/06 03:19:42;;;;;;;;;;;5.40;52.90;;;;;;5013452;28;19929;-54
2022/03/06 03:22:07;;;;;;;;;;;5.30;52.90;;;;;;5015085;28;20273;-54
2022/03/06 03:24:33;;;;;;;;;;;5.40;52.70;;;;;;5017872;28;19917;-55
2022/03/06 03:26:58;;;;;;;;;;;5.40;52.60;;;;;;5017766;28;19917;-54
2022/03/06 03:29:24;;;;;;;;;;;5.40;52.50;;;;;;5017736;28;19916;-59
2022/03/06 03:31:49;;;;;;;;;;;5.30;52.70;;;;;;5017674;28;19909;-57
2022/03/06 03:34:15;;;;;;;;;;;5.40;52.50;;;;;;5017563;28;20412;-53
2022/03/06 03:36:41;;;;;;;;;;;5.20;52.70;;;;;;5017428;28;19914;-53
2022/03/06 03:39:07;;;;;;;;;;;5.30;52.70;;;;;;5017461;28;19967;-55
2022/03/06 03:41:32;;;;;;;;;;;5.40;52.20;;;;;;5017286;28;19909;-54
2022/03/06 03:43:58;;;;;;;;;;;5.30;52.50;;;;;;5017332;28;19910;-54
2022/03/06 03:46:23;;;;;;;;;;;5.30;52.20;;;;;;5017385;28;19909;-54
2022/03/06 03:48:49;;;;;;;;;;;5.40;52.40;;;;;;5017636;28;19917;-54
2022/03/06 03:51:15;;;;;;;;;;;5.20;52.60;;;;;;5017332;28;19965;-57
2022/03/06 03:53:40;;;;;;;;;;;5.30;52.90;;;;;;5017573;28;20333;-53
2022/03/06 03:56:06;;;;;;;;;;;5.30;52.70;;;;;;5017002;28;19979;-65
2022/03/06 03:58:32;;;;;;;;;;;5.10;53.10;;;;;;5017604;28;19973;-54
2022/03/06 04:00:58;;;;;;;;;;;5.00;53.20;;;;;;5017189;28;19909;-55
2022/03/06 04:03:24;;;;;;;;;;;4.90;53.80;;;;;;5017588;28;19989;-59
2022/03/06 04:05:49;;;;;;;;;;;4.90;53.90;;;;;;5016946;28;19937;-53
2022/03/06 04:08:15;;;;;;;;;;;4.90;53.90;;;;;;5017076;28;20277;-53
2022/03/06 04:10:41;;;;;;;;;;;5.00;53.90;;;;;;5016809;28;19909;-53
2022/03/06 04:13:06;;;;;;;;;;;5.00;54.10;;;;;;5017174;28;20317;-53
2022/03/06 04:15:32;;;;;;;;;;;5.10;53.80;;;;;;5016806;28;19917;-53
2022/03/06 04:17:58;;;;;;;;;;;5.20;53.40;;;;;;5016582;28;19928;-54
2022/03/06 04:20:23;;;;;;;;;;;5.20;53.80;;;;;;5016589;28;20007;-54
2022/03/06 04:22:49;;;;;;;;;;;5.10;53.70;;;;;;5016875;28;19956;-54
2022/03/06 04:25:14;;;;;;;;;;;5.00;54.20;;;;;;5016613;28;19951;-54
2022/03/06 04:27:40;;;;;;;;;;;5.10;53.80;;;;;;5016996;28;19910;-54
2022/03/06 04:30:06;;;;;;;;;;;5.10;53.70;;;;;;5016880;28;19992;-54
2022/03/06 04:32:31;;;;;;;;;;;5.10;53.90;;;;;;5016333;28;19909;-54
2022/03/06 04:34:57;;;;;;;;;;;5.00;54.40;;;;;;5016685;28;20273;-54
2022/03/06 04:37:22;;;;;;;;;;;5.00;54.30;;;;;;5016444;28;19917;-54
2022/03/06 04:39:48;;;;;;;;;;;4.90;54.40;;;;;;5016618;28;19956;-54
2022/03/06 04:42:14;;;;;;;;;;;4.80;54.60;;;;;;5016657;28;19917;-54
2022/03/06 04:44:39;;;;;;;;;;;4.90;54.60;;;;;;5016357;28;20013;-54
2022/03/06 04:47:05;;;;;;;;;;;5.00;54.00;;;;;;5016378;28;19913;-54
2022/03/06 04:49:31;;;;;;;;;;;5.10;53.70;;;;;;5016294;28;20369;-54
2022/03/06 04:51:56;;;;;;;;;;;5.10;53.80;;;;;;5016324;28;19924;-54
2022/03/06 04:54:22;;;;;;;;;;;5.20;53.50;;;;;;5016124;28;19910;-54
2022/03/06 04:56:47;;;;;;;;;;;5.20;53.60;;;;;;5016047;28;19918;-54
2022/03/06 04:59:13;;;;;;;;;;;5.10;53.70;;;;;;5016413;28;19909;-55
2022/03/06 05:01:38;;;;;;;;;;;5.20;54.30;;;;;;5016348;28;19909;-54
2022/03/06 05:04:04;;;;;;;;;;;5.00;53.70;;;;;;5016229;28;19910;-53
2022/03/06 05:06:29;;;;;;;;;;;5.00;53.90;;;;;;5015978;28;19917;-53
2022/03/06 05:08:55;;;;;;;;;;;5.00;54.30;;;;;;5015855;28;19910;-53
2022/03/06 05:11:21;;;;;;;;;;;4.90;54.30;;;;;;5015826;28;19913;-53
2022/03/06 05:13:46;;;;;;;;;;;5.00;54.30;;;;;;5015826;28;20301;-53
2022/03/06 05:16:13;;;;;;;;;;;4.90;54.20;;;;;;5015927;28;19909;-53
2022/03/06 05:18:38;;;;;;;;;;;5.00;54.40;;;;;;5015434;28;19968;-53
2022/03/06 05:21:04;;;;;;;;;;;4.90;54.30;;;;;;5015637;28;19913;-54
2022/03/06 05:23:30;;;;;;;;;;;5.00;54.30;;;;;;5015809;28;19909;-54
2022/03/06 05:25:57;;;;;;;;;;;4.80;54.40;;;;;;5015571;28;19916;-53
2022/03/06 05:28:23;;;;;;;;;;;4.90;54.40;;;;;;5015985;28;20004;-55
2022/03/06 05:30:49;;;;;;;;;;;4.90;54.30;;;;;;5015672;28;19948;-54
2022/03/06 05:33:14;;;;;;;;;;;4.90;54.20;;;;;;5015543;28;20381;-55
2022/03/06 05:35:40;;;;;;;;;;;5.00;53.60;;;;;;5015443;28;20392;-55
2022/03/06 05:38:05;;;;;;;;;;;5.10;53.90;;;;;;5015609;28;19917;-55
2022/03/06 05:40:31;;;;;;;;;;;5.00;53.90;;;;;;5015351;28;20392;-55
2022/03/06 05:42:57;;;;;;;;;;;5.10;53.50;;;;;;5015220;28;19920;-55
2022/03/06 05:45:22;;;;;;;;;;;5.00;53.40;;;;;;5014632;28;19909;-55
2022/03/06 05:47:48;;;;;;;;;;;5.10;53.80;;;;;;5015281;28;20273;-55
2022/03/06 05:50:14;;;;;;;;;;;5.00;53.70;;;;;;5015074;28;19917;-54
2022/03/06 05:52:39;;;;;;;;;;;5.00;54.30;;;;;;5015409;28;19909;-54
2022/03/06 05:55:05;;;;;;;;;;;5.00;53.70;;;;;;5014959;28;19910;-53
2022/03/06 05:57:31;;;;;;;;;;;4.90;53.50;;;;;;5015369;28;20029;-55
2022/03/06 05:59:56;;;;;;;;;;;5.00;53.60;;;;;;5014992;28;20297;-55
2022/03/06 06:02:23;;;;;;;;;;;5.10;53.20;;;;;;5015204;28;19968;-53
2022/03/06 06:04:49;;;;;;;;;;;5.00;53.30;;;;;;5014858;28;19910;-54
2022/03/06 06:07:15;;;;;;;;;;;5.10;53.70;;;;;;5014713;28;19910;-55
2022/03/06 06:09:41;;;;;;;;;;;5.10;53.50;;;;;;5015247;28;19983;-53
2022/03/06 06:12:07;;;;;;;;;;;5.20;53.20;;;;;;5014781;28;20369;-55
2022/03/06 06:14:32;;;;;;;;;;;5.10;53.20;;;;;;5014782;28;20405;-53
2022/03/06 06:16:58;;;;;;;;;;;5.20;53.10;;;;;;5014375;28;20004;-52
2022/03/06 06:19:24;;;;;;;;;;;5.30;52.60;;;;;;5014339;28;20258;-54
2022/03/06 06:21:49;;;;;;;;;;;5.30;52.40;;;;;;5014455;28;19931;-55
2022/03/06 06:24:15;;;;;;;;;;;5.30;52.20;;;;;;5014217;28;20323;-53
2022/03/06 06:26:41;;;;;;;;;;;5.40;52.30;;;;;;5014394;28;19963;-53
2022/03/06 06:29:06;;;;;;;;;;;5.30;52.60;;;;;;5014525;28;19997;-53
2022/03/06 06:31:32;;;;;;;;;;;5.20;52.70;;;;;;5015501;28;20023;-52
2022/03/06 06:33:57;;;;;;;;;;;5.20;52.80;;;;;;5014660;28;19916;-53
2022/03/06 06:36:23;;;;;;;;;;;5.20;53.40;;;;;;5014134;28;19913;-55
2022/03/06 06:38:49;;;;;;;;;;;5.10;52.90;;;;;;5013900;28;19921;-55
2022/03/06 06:41:14;;;;;;;;;;;5.00;53.10;;;;;;5014303;28;20369;-53
2022/03/06 06:43:42;;;;;;;;;;;4.90;53.90;;;;;;5014205;28;20283;-53
2022/03/06 06:46:08;;;;;;;;;;;4.90;53.80;;;;;;5014242;28;19920;-54
2022/03/06 06:48:33;;;;;;;;;;;4.90;53.40;;;;;;4996776;28;20358;-55
2022/03/06 06:50:59;;;;;;;;;;;4.90;53.50;;;;;;5014191;28;20281;-59
2022/03/06 06:53:24;;;;;;;;;;;5.00;53.20;;;;;;5013876;28;19913;-55
2022/03/06 06:55:50;;;;;;;;;;;5.10;53.20;;;;;;5013491;28;19909;-54
2022/03/06 06:58:16;;;;;;;;;;;5.20;52.90;;;;;;5013712;28;20361;-53
2022/03/06 07:00:41;;;;;;;;;;;5.30;52.60;;;;;;5013982;28;19910;-54
2022/03/06 07:03:07;;;;;;;;;;;6.00;69.10;;;;;;5014134;28;19917;-55
2022/03/06 07:05:32;;;;;;;;;;;7.30;67.90;;;;;;5013883;28;19963;-53
2022/03/06 07:07:58;;;;;;;;;;;7.40;50.80;;;;;;5013207;28;20491;-53
2022/03/06 07:10:23;;;;;;;;;;;7.50;50.00;;;;;;5013689;28;19917;-53
2022/03/06 07:12:55;;;;;;;;;;;7.50;49.90;;;;;;5013624;28;20249;-53
2022/03/06 07:15:21;;;;;;;;;;;7.60;49.30;;;;;;5013877;28;19916;-54
2022/03/06 07:17:47;;;;;;;;;;;7.90;47.50;;;;;;5013237;28;19929;-54
2022/03/06 07:20:12;;;;;;;;;;;7.80;45.90;;;;;;5013434;28;20281;-53
2022/03/06 07:22:38;;;;;;;;;;;7.90;47.10;;;;;;5013685;28;19920;-53
2022/03/06 07:25:04;;;;;;;;;;;7.90;47.50;;;;;;5013790;28;19916;-54
2022/03/06 07:27:29;;;;;;;;;;;7.80;44.70;;;;;;5013464;28;19917;-54
2022/03/06 07:29:56;;;;;;;;;;;7.30;45.50;;;;;;5013846;28;20261;-54
2022/03/06 07:32:22;;;;;;;;;;;7.20;46.00;;;;;;5013540;28;19916;-54
2022/03/06 07:34:47;;;;;;;;;;;7.00;46.10;;;;;;4996042;28;19914;-54
2022/03/06 07:37:13;;;;;;;;;;;7.00;46.50;;;;;;5013362;28;19928;-55
2022/03/06 07:39:39;;;;;;;;;;;7.10;46.50;;;;;;5013643;28;19909;-56
2022/03/06 07:42:04;;;;;;;;;;;7.20;46.00;;;;;;5013617;28;19913;-55
2022/03/06 07:44:30;;;;;;;;;;;7.30;45.90;;;;;;5013356;28;19917;-54
2022/03/06 07:46:55;;;;;;;;;;;7.20;45.90;;;;;;5013309;28;19910;-55
2022/03/06 07:49:21;;;;;;;;;;;7.00;46.00;;;;;;5013588;28;20277;-54
2022/03/06 07:51:46;;;;;;;;;;;6.90;45.60;;;;;;5013433;28;20354;-53
2022/03/06 07:54:15;;;;;;;;;;;6.90;45.90;;;;;;5013360;28;20075;-55
2022/03/06 07:56:41;;;;;;;;;;;7.00;45.30;;;;;;5012923;28;19909;-53
2022/03/06 07:59:07;;;;;;;;;;;7.00;45.50;;;;;;5013272;28;20078;-53
2022/03/06 08:01:33;;;;;;;;;;;7.10;45.60;;;;;;5013214;28;19916;-53
2022/03/06 08:03:58;;;;;;;;;;;7.20;46.00;;;;;;5013171;28;19910;-53
2022/03/06 08:06:24;;;;;;;;;;;7.30;45.20;;;;;;5012904;28;19987;-53
2022/03/06 08:08:49;;;;;;;;;;;7.20;44.90;;;;;;5015544;28;19916;-55
2022/03/06 08:11:15;;;;;;;;;;;7.30;44.80;;;;;;5017094;28;19913;-53
2022/03/06 08:13:40;;;;;;;;;;;7.50;44.40;;;;;;5016819;28;19916;-54
2022/03/06 08:16:06;;;;;;;;;;;7.40;44.40;;;;;;5016813;28;19916;-53
2022/03/06 08:18:32;;;;;;;;;;;7.50;44.90;;;;;;5016333;28;19921;-55
2022/03/06 08:20:57;;;;;;;;;;;7.60;44.50;;;;;;5016499;28;20373;-53
2022/03/06 08:23:23;;;;;;;;;;;7.40;43.60;;;;;;5016593;28;19909;-54
2022/03/06 08:25:48;;;;;;;;;;;7.50;44.60;;;;;;5016497;28;20346;-54
2022/03/06 08:28:14;;;;;;;;;;;7.80;44.00;;;;;;5016629;28;19909;-54
2022/03/06 08:30:39;;;;;;;;;;;7.80;43.50;;;;;;5016723;28;19913;-53
2022/03/06 08:33:05;;;;;;;;;;;7.70;43.80;;;;;;5016574;28;19917;-55
2022/03/06 08:35:31;;;;;;;;;;;7.70;43.60;;;;;;5016492;28;20409;-54
2022/03/06 08:37:56;;;;;;;;;;;7.90;43.40;;;;;;5016273;28;19922;-55
2022/03/06 08:40:23;;;;;;;;;;;8.10;43.00;;;;;;5016300;28;19910;-55
2022/03/06 08:42:48;;;;;;;;;;;8.00;42.40;;;;;;5016510;28;19956;-54
2022/03/06 08:45:14;;;;;;;;;;;7.80;43.20;;;;;;5016041;28;19910;-54
2022/03/06 08:47:39;;;;;;;;;;;7.80;43.30;;;;;;5016192;28;19910;-53
2022/03/06 08:50:05;;;;;;;;;;;7.70;43.00;;;;;;5016044;28;20000;-53
2022/03/06 08:52:31;;;;;;;;;;;7.60;43.10;;;;;;5015888;28;19910;-53
2022/03/06 08:54:57;;;;;;;;;;;8.00;43.10;;;;;;5015725;28;19921;-54
2022/03/06 08:57:23;;;;;;;;;;;8.00;42.50;;;;;;5016065;28;19979;-53
2022/03/06 08:59:49;;;;;;;;;;;8.20;42.60;;;;;;5015607;28;19909;-53
2022/03/06 09:02:15;;;;;;;;;;;8.00;41.90;;;;;;5014315;28;19910;-54
2022/03/06 09:04:40;;;;;;;;;;;8.10;42.20;;;;;;5015360;28;19933;-53
2022/03/06 09:07:06;;;;;;;;;;;8.30;41.70;;;;;;5015666;28;19933;-53
2022/03/06 09:09:32;;;;;;;;;;;7.90;40.70;;;;;;5015875;28;19932;-53
2022/03/06 09:11:57;;;;;;;;;;;8.10;41.60;;;;;;5015812;28;19929;-52
2022/03/06 09:14:23;;;;;;;;;;;8.20;41.40;;;;;;5015880;28;19981;-54
2022/03/06 09:16:49;;;;;;;;;;;8.10;41.20;;;;;;5015297;28;20265;-53
2022/03/06 09:19:14;;;;;;;;;;;8.00;40.70;;;;;;5014300;28;19922;-55
2022/03/06 09:21:40;;;;;;;;;;;8.00;41.00;;;;;;5015065;28;20347;-53
2022/03/06 09:24:08;;;;;;;;;;;7.90;41.00;;;;;;5014542;28;19910;-55
2022/03/06 09:26:33;;;;;;;;;;;7.80;41.50;;;;;;5014571;28;19910;-53
2022/03/06 09:28:59;;;;;;;;;;;7.80;41.20;;;;;;4997852;28;20300;-53
2022/03/06 09:31:25;;;;;;;;;;;7.60;41.40;;;;;;5015409;28;19913;-52
2022/03/06 09:33:51;;;;;;;;;;;7.70;41.40;;;;;;5015048;28;19909;-53
2022/03/06 09:36:16;;;;;;;;;;;7.70;41.00;;;;;;5015040;28;20392;-54
2022/03/06 09:38:42;;;;;;;;;;;7.80;41.20;;;;;;5015304;28;19918;-53
2022/03/06 09:41:09;;;;;;;;;;;7.80;40.70;;;;;;5015212;28;19915;-53
2022/03/06 09:43:35;;;;;;;;;;;7.80;40.40;;;;;;5015301;28;19920;-53
2022/03/06 09:46:05;;;;;;;;;;;8.00;40.30;;;;;;5014948;28;20266;-53
2022/03/06 09:48:31;;;;;;;;;;;8.00;39.40;;;;;;5015173;28;19964;-54
2022/03/06 09:50:57;;;;;;;;;;;7.90;39.70;;;;;;4997394;28;19913;-54
2022/03/06 09:53:22;;;;;;;;;;;8.00;40.40;;;;;;5015153;28;19909;-53
2022/03/06 09:55:48;;;;;;;;;;;8.20;40.10;;;;;;4997261;28;19916;-55
2022/03/06 09:58:14;;;;;;;;;;;8.20;39.60;;;;;;5014792;28;19918;-55
2022/03/06 10:00:40;;;;;;;;;;;8.20;38.60;;;;;;5014817;28;19910;-56
2022/03/06 10:03:06;;;;;;;;;;;8.30;38.80;;;;;;5014363;28;20226;-55
2022/03/06 10:05:39;;;;;;;;;;;8.40;38.60;;;;;;5014368;28;19920;-56
2022/03/06 10:08:34;;;;;;;;;;;8.40;38.70;;;;;;5014969;28;20023;-55
2022/03/06 10:11:01;;;;;;;;;;;8.40;38.90;;;;;;4993669;28;19913;-56
2022/03/06 10:13:31;;;;;;;;;;;8.60;38.90;;;;;;4997046;28;19913;-55
2022/03/06 10:15:58;;;;;;;;;;;8.90;38.80;;;;;;5014771;28;20456;-54
2022/03/06 10:18:24;;;;;;;;;;;8.80;39.20;;;;;;5014582;28;19921;-57
2022/03/06 10:20:50;;;;;;;;;;;8.90;39.00;;;;;;5013481;28;20633;-56
2022/03/06 10:23:25;;;;;;;;;;;8.90;39.50;;;;;;5010561;28;19913;-55
2022/03/06 10:26:04;;;;;;;;;;;9.00;39.20;;;;;;5014082;28;19909;-54
2022/03/06 10:28:30;;;;;;;;;;;8.90;38.50;;;;;;5014100;28;19917;-54
2022/03/06 10:31:03;;;;;;;;;;;8.90;39.30;;;;;;5013928;28;19909;-55
2022/03/06 10:33:28;;;;;;;;;;;9.00;39.20;;;;;;5014307;28;19909;-55
2022/03/06 10:35:58;;;;;;;;;;;9.10;39.10;;;;;;5014343;28;19916;-55
2022/03/06 10:38:27;;;;;;;;;;;9.20;38.10;;;;;;5014045;28;19965;-56
2022/03/06 10:40:58;;;;;;;;;;;8.70;37.90;;;;;;5014364;28;20258;-54
2022/03/06 10:43:25;;;;;;;;;;;8.80;39.60;;;;;;5014196;28;20012;-55
2022/03/06 10:45:51;;;;;;;;;;;9.00;40.10;;;;;;5013998;28;19909;-56
2022/03/06 10:48:17;;;;;;;;;;;9.10;40.30;;;;;;5014055;28;19910;-55
2022/03/06 10:50:43;;;;;;;;;;;9.00;40.40;;;;;;5014065;28;19959;-55
2022/03/06 10:53:22;;;;;;;;;;;9.00;40.50;;;;;;5013869;28;20265;-56
2022/03/06 10:55:48;;;;;;;;;;;8.70;40.50;;;;;;5013838;28;19968;-56
2022/03/06 10:58:13;;;;;;;;;;;8.60;41.10;;;;;;5013977;28;19960;-55
2022/03/06 11:00:40;;;;;;;;;;;8.50;40.80;;;;;;5014097;28;19917;-56
2022/03/06 11:03:07;;;;;;;;;;;8.40;41.60;;;;;;5014086;28;19945;-56
2022/03/06 11:05:33;;;;;;;;;;;8.60;41.60;;;;;;5013728;28;19910;-55
2022/03/06 11:07:59;;;;;;;;;;;8.30;40.90;;;;;;5014051;28;19973;-56
2022/03/06 11:10:25;;;;;;;;;;;8.40;41.80;;;;;;5013700;28;19909;-56
2022/03/06 11:12:51;;;;;;;;;;;8.60;42.30;;;;;;5014033;28;19997;-57
2022/03/06 11:15:17;;;;;;;;;;;8.60;41.10;;;;;;5013486;28;20069;-58
2022/03/06 11:17:42;;;;;;;;;;;8.80;41.50;;;;;;5013850;28;19918;-56
2022/03/06 11:20:08;;;;;;;;;;;8.90;40.30;;;;;;5013747;28;19917;-56
2022/03/06 11:22:46;;;;;;;;;;;8.80;40.50;;;;;;5013502;28;19920;-56
2022/03/06 11:25:14;;;;;;;;;;;8.80;40.80;;;;;;5011324;28;20004;-55
2022/03/06 11:27:58;;;;;;;;;;;8.90;40.50;;;;;;5013282;28;19957;-57
2022/03/06 11:30:24;;;;;;;;;;;8.70;39.70;;;;;;5013113;28;19909;-56
2022/03/06 11:33:16;;;;;;;;;;;8.50;40.70;;;;;;5012972;28;20421;-55
2022/03/06 11:35:43;;;;;;;;;;;8.60;40.80;;;;;;5009222;28;20012;-60
2022/03/06 11:38:10;;;;;;;;;;;8.50;41.50;;;;;;5013173;28;19917;-59
2022/03/06 11:40:38;;;;;;;;;;;8.50;41.00;;;;;;5013531;28;19910;-57
2022/03/06 11:43:05;;;;;;;;;;;8.50;40.70;;;;;;5016354;28;19920;-58
2022/03/06 11:45:47;;;;;;;;;;;8.50;41.60;;;;;;5020165;28;19909;-59
2022/03/06 11:48:26;;;;;;;;;;;8.60;41.20;;;;;;5017283;28;20043;-56
2022/03/06 11:51:11;;;;;;;;;;;8.80;41.80;;;;;;5016969;28;20019;-57
2022/03/06 11:53:54;;;;;;;;;;;8.90;40.80;;;;;;5016830;28;19914;-60
2022/03/06 11:56:35;;;;;;;;;;;8.70;40.00;;;;;;5017166;28;20277;-56
2022/03/06 11:59:19;;;;;;;;;;;8.60;40.30;;;;;;5016694;28;19972;-57
2022/03/06 12:01:46;;;;;;;;;;;8.50;40.80;;;;;;5016828;28;19949;-56
2022/03/06 12:04:14;;;;;;;;;;;8.60;41.10;;;;;;5016887;28;19909;-58
2022/03/06 12:06:40;;;;;;;;;;;8.90;40.40;;;;;;5016849;28;19980;-56
2022/03/06 12:09:11;;;;;;;;;;;8.90;39.60;;;;;;5016709;28;19964;-55
2022/03/06 12:11:37;;;;;;;;;;;8.80;39.70;;;;;;5016669;28;19909;-56
2022/03/06 12:14:12;;;;;;;;;;;8.60;39.90;;;;;;5016725;28;20268;-55
2022/03/06 12:16:57;;;;;;;;;;;8.70;40.70;;;;;;5016269;28;19967;-54
2022/03/06 12:19:23;;;;;;;;;;;8.50;39.80;;;;;;5016169;28;19922;-53
2022/03/06 12:21:48;;;;;;;;;;;8.50;40.80;;;;;;5016478;28;19910;-53
2022/03/06 12:24:26;;;;;;;;;;;8.60;42.20;;;;;;5016348;28;19910;-53
2022/03/06 12:26:53;;;;;;;;;;;8.20;41.10;;;;;;5016125;28;19916;-54
2022/03/06 12:29:37;;;;;;;;;;;8.40;42.30;;;;;;5016226;28;20465;-54
2022/03/06 12:32:21;;;;;;;;;;;8.50;40.60;;;;;;5016295;28;19913;-55
2022/03/06 12:34:47;;;;;;;;;;;8.50;39.70;;;;;;5016000;28;19978;-56
2022/03/06 12:37:12;;;;;;;;;;;8.50;39.70;;;;;;5016118;28;19917;-61
2022/03/06 12:39:38;;;;;;;;;;;8.60;39.50;;;;;;5016418;28;19917;-57
2022/03/06 12:42:04;;;;;;;;;;;8.70;39.60;;;;;;5015993;28;19909;-54
2022/03/06 12:44:31;;;;;;;;;;;8.60;39.50;;;;;;5015811;28;19941;-54
2022/03/06 12:46:56;;;;;;;;;;;8.70;39.50;;;;;;5015783;28;19916;-54
2022/03/06 12:49:23;;;;;;;;;;;8.70;39.10;;;;;;5016037;28;19909;-57
2022/03/06 12:51:50;;;;;;;;;;;8.80;39.90;;;;;;5015824;28;19957;-54
2022/03/06 12:54:18;;;;;;;;;;;8.80;39.00;;;;;;5015580;28;20047;-53
2022/03/06 12:56:43;;;;;;;;;;;8.40;38.50;;;;;;5015633;28;19914;-52
2022/03/06 12:59:15;;;;;;;;;;;8.20;39.90;;;;;;5015656;28;20321;-54
2022/03/06 13:01:41;;;;;;;;;;;8.40;40.10;;;;;;5015688;28;19910;-53
2022/03/06 13:04:07;;;;;;;;;;;8.50;40.00;;;;;;5015544;28;20424;-56
2022/03/06 13:06:33;;;;;;;;;;;8.70;39.80;;;;;;5015305;28;19914;-54
2022/03/06 13:08:58;;;;;;;;;;;8.70;39.50;;;;;;5015437;28;19933;-55
2022/03/06 13:11:24;;;;;;;;;;;8.60;40.20;;;;;;5015333;28;19909;-54
2022/03/06 13:13:58;;;;;;;;;;;8.60;40.10;;;;;;5015461;28;19953;-54
2022/03/06 13:16:27;;;;;;;;;;;8.60;40.20;;;;;;5015230;28;19910;-55
2022/03/06 13:18:57;;;;;;;;;;;8.20;39.30;;;;;;5015020;28;19921;-53
2022/03/06 13:21:24;;;;;;;;;;;8.10;40.90;;;;;;5015072;28;19910;-53
2022/03/06 13:24:03;;;;;;;;;;;8.20;43.30;;;;;;5015041;28;19972;-54
2022/03/06 13:26:29;;;;;;;;;;;8.40;40.60;;;;;;5014859;28;19999;-53
2022/03/06 13:28:55;;;;;;;;;;;8.10;40.10;;;;;;5014702;28;19909;-55
2022/03/06 13:31:21;;;;;;;;;;;8.20;40.50;;;;;;5015442;28;19910;-53
2022/03/06 13:34:00;;;;;;;;;;;8.20;40.10;;;;;;5014997;28;19991;-52
2022/03/06 13:36:26;;;;;;;;;;;8.40;40.30;;;;;;5014772;28;20333;-52
2022/03/06 13:38:59;;;;;;;;;;;8.60;39.40;;;;;;5014634;28;19917;-53
2022/03/06 13:41:25;;;;;;;;;;;8.60;39.80;;;;;;5000538;28;20255;-54
2022/03/06 13:43:50;;;;;;;;;;;8.50;40.00;;;;;;4995355;28;19933;-55
2022/03/06 13:46:16;;;;;;;;;;;8.40;39.50;;;;;;4994912;28;20273;-53
2022/03/06 13:48:42;;;;;;;;;;;8.30;40.10;;;;;;4995208;28;19914;-54
2022/03/06 13:51:18;;;;;;;;;;;8.30;40.00;;;;;;4996035;28;19996;-56
2022/03/06 13:53:56;;;;;;;;;;;8.40;40.40;;;;;;4995135;28;20333;-54
2022/03/06 13:56:28;;;;;;;;;;;8.40;40.30;;;;;;4995877;28;20309;-53
2022/03/06 13:58:54;;;;;;;;;;;8.50;40.20;;;;;;4995463;28;20286;-54
2022/03/06 14:01:19;;;;;;;;;;;8.50;39.40;;;;;;4995162;28;19964;-54
2022/03/06 14:03:46;;;;;;;;;;;8.40;39.90;;;;;;4994962;28;19909;-55
2022/03/06 14:06:13;;;;;;;;;;;8.50;40.40;;;;;;4994201;28;19910;-54
2022/03/06 14:08:41;;;;;;;;;;;8.70;40.60;;;;;;4994728;28;19910;-51
2022/03/06 14:11:08;;;;;;;;;;;8.70;39.80;;;;;;4994677;28;20263;-53
2022/03/06 14:13:41;;;;;;;;;;;8.80;39.40;;;;;;4994682;28;19910;-54
2022/03/06 14:16:10;;;;;;;;;;;8.80;39.60;;;;;;4993998;28;19914;-54
2022/03/06 14:18:38;;;;;;;;;;;8.70;39.40;;;;;;4993970;28;19922;-54
2022/03/06 14:21:09;;;;;;;;;;;8.70;39.70;;;;;;4994708;28;19924;-54
2022/03/06 14:23:35;;;;;;;;;;;8.70;39.80;;;;;;4993354;28;20376;-54
2022/03/06 14:26:00;;;;;;;;;;;8.80;39.70;;;;;;4994504;28;19973;-54
2022/03/06 14:28:26;;;;;;;;;;;8.60;39.30;;;;;;4994454;28;20258;-53